High gust

Not for real navigation. The accuracy of this data is not assured See disclaimer for more information



ICAO NAME COUNTRY WIND Kt GUST Kt VIS m TEMP/DEW C BARO METAR
ENLK Leknes Norway 30 62 5000 0/-3 29.35 ENLK 190950Z 27030G62KT 5000 -SHSN FEW002 SCT020 BKN040 00/M03 Q0994
ENRS Rost Flyplass Norway 306 56 800 0/-2 29.44 ENRS 191020Z 280306G56KT 0800 -SHSNGS FEW011 SCT020CB BKN053 M00/M02 Q0997
LIVT Trieste Italy 23 54 9999 3/-8 30.39 LIVT 190955Z 04023G54KT CAVOK 03/M08 Q1029 RMK CAVOK QUK 5 QUL 4 NE VIS MAR 20 KM VIS MIN 9999
KGDP GUADALUPE PASS TX United States 41 54 9999 4/1 29.84 KGDP 190951Z AUTO 24041G54KT 10SM CAVOK 04/01 A2984 RMK AO2 PK WND 25054/0943 SLP078 T00390011
ENNE 42 53 9999 2/-8 29.83 ENNE 191020Z 31042G53KT 9999 VCSH FEW010CB BKN020 02/M08 Q1010 W///S7

Show more